world map with LEEC marked

LEEC - Heliport

This information may not be accurate or current and is not valid for navigation or flight planning. No warranty of fitness for any purpose is made or implied.

flag of Andalusiaflag of Spain

Donate via PayPal

Additional information is available on the NEW Great Circle Mapper

Location
City:  Sevilla, Andalusia, Spain
Name:El Copero
ICAO:LEEC

Details
Type:Heliport
Latitude:37°18'47"N (37.313056)
Longitude:5°59'56"W (-5.998888)
Helipads:1
Largest:1115 × 164 ft (340 × 50 m)

Weather
METAR:LEEC  041400Z 03010KT CAVOK 14/01 Q1028

Related Locations
Nearby:
Farthest:NZLD: 12399 mi / 19954 km
Limestone Downs, WKO, NZ

Find:

   beyond  
but within

Other Information
Maps:
Sources:

  


 


Great Circle Mapper   Great Circle Mapper
Great Circle Mapper FAQ   Great Circle Mapper FAQ
  Karl's Home Page
KLSē   KLSē Home
   GC on Facebook
Airlines of the World   Airlines of the World
Donate via PayPal


Copyright © 2004-2019, Karl L. Swartz. All rights reserved.
All trademarks mentioned herein belong to their respective owners.

Please see credits for attribution and copyright information.

Karl Swartz <karl@kls2.com>
  Powered by FreeBSD
Valid HTML 4.01!
Labeled with ICRA
hCard Microformat
Geo Microformat